Fort Stockton Pecos County Airport
KFST : now visible

Airfield :











YOU CAN JOIN US ON...

 
LOGIN :

Register | Disclaimer

   EN    FR    IT 

 









Legend :    VFR   Marginal VFR   IFR   Intensive IFR   Very Intensive IFR
Visi :
Ceiling :
>= 8 km
>= 3000ft
5 to 8 km
1000 to 3000 ft
1500m to 5 km
500 to 1000 ft
800 to 1500m
200 to 500 ft
< 800m
< 200 ft
Symbols :   Thunderstorms  Fog  Heavy snow  Heavy precipitations  Wind > 20 kt






- Airport Elevation : 3011 ft


KFST - Fort Stockton Pecos County

CURRENT METAR :
  • 230953Z AUTO 23004KT 5SM HZ SCT018 BKN027 24/20 A2985 RMK AO2 SLP053 T02390200

EXPIRED METARs :
  • 230853Z AUTO 17006KT 6SM HZ CLR 24/20 A2985 RMK AO2 SLP052 T02390200 55003
  • 230753Z AUTO 16008KT 6SM HZ CLR 24/20 A2984 RMK AO2 SLP049 T02390200
  • 230653Z AUTO 16010KT 7SM CLR 25/19 A2985 RMK AO2 SLP051 T02500194
  • 230553Z AUTO 15010KT 8SM CLR 26/19 A2986 RMK AO2 SLP054 T02610189 10356 20261 403670233 50014

TAF KFST
Valid from the 23 at 06:00 until the 24 at 06:00 UTC


230522Z 2306/2406 16010KT P6SM SKC
FM231500 27015G22KT P6SM SKC
FM240000 23008KT P6SM SKC
KZAB FIR / North America



MET'MAP, your aeronautical weather chart ! - Copyright ORBIFLY December 2007 - Disclaimer

ORBIFLY MET'MAP TEAM :

Programming & Development : Alexandra Zaïnal
Original concept : Baudouin d'Aumeries
Technical & hardware support : Manuel Goepfert
Assistance : Marc-Olivier Méhu




SOURCES & CREDITS :

   NOAA       Earth
Advisory